sensor_id;sensor_type;location;lat;lon;timestamp;P1;durP1;ratioP1;P2;durP2;ratioP2
44026;SDS011;29696;55.698;37.460;2022-08-19T00:01:41;11.52;;;6.05;;
44026;SDS011;29696;55.698;37.460;2022-08-19T00:04:10;6.22;;;5.07;;
44026;SDS011;29696;55.698;37.460;2022-08-19T00:06:39;8.23;;;4.97;;
44026;SDS011;29696;55.698;37.460;2022-08-19T00:09:08;14.50;;;5.38;;
44026;SDS011;29696;55.698;37.460;2022-08-19T00:11:36;6.25;;;4.45;;
44026;SDS011;29696;55.698;37.460;2022-08-19T00:14:04;6.78;;;3.85;;
44026;SDS011;29696;55.698;37.460;2022-08-19T00:16:32;8.02;;;5.28;;
44026;SDS011;29696;55.698;37.460;2022-08-19T00:18:58;5.60;;;4.07;;
44026;SDS011;29696;55.698;37.460;2022-08-19T00:21:25;6.55;;;4.18;;
44026;SDS011;29696;55.698;37.460;2022-08-19T00:23:53;5.68;;;4.13;;
44026;SDS011;29696;55.698;37.460;2022-08-19T00:26:20;5.07;;;4.35;;
44026;SDS011;29696;55.698;37.460;2022-08-19T00:28:46;8.15;;;3.40;;
44026;SDS011;29696;55.698;37.460;2022-08-19T00:31:13;8.57;;;4.78;;
44026;SDS011;29696;55.698;37.460;2022-08-19T00:33:39;8.35;;;4.50;;
44026;SDS011;29696;55.698;37.460;2022-08-19T00:36:06;7.57;;;5.93;;
44026;SDS011;29696;55.698;37.460;2022-08-19T00:38:34;8.02;;;5.30;;
44026;SDS011;29696;55.698;37.460;2022-08-19T00:41:02;6.40;;;4.63;;
44026;SDS011;29696;55.698;37.460;2022-08-19T00:43:30;10.80;;;4.85;;
44026;SDS011;29696;55.698;37.460;2022-08-19T00:45:57;9.35;;;4.60;;
44026;SDS011;29696;55.698;37.460;2022-08-19T00:48:23;6.80;;;5.03;;
44026;SDS011;29696;55.698;37.460;2022-08-19T00:50:50;18.73;;;5.63;;
44026;SDS011;29696;55.698;37.460;2022-08-19T00:53:20;7.18;;;5.20;;
44026;SDS011;29696;55.698;37.460;2022-08-19T00:55:50;5.50;;;4.85;;
44026;SDS011;29696;55.698;37.460;2022-08-19T00:58:19;9.00;;;4.85;;
44026;SDS011;29696;55.698;37.460;2022-08-19T01:00:48;7.78;;;5.43;;
44026;SDS011;29696;55.698;37.460;2022-08-19T01:03:15;9.23;;;5.50;;
44026;SDS011;29696;55.698;37.460;2022-08-19T01:05:44;7.63;;;5.40;;
44026;SDS011;29696;55.698;37.460;2022-08-19T01:08:13;16.05;;;6.15;;
44026;SDS011;29696;55.698;37.460;2022-08-19T01:10:42;10.38;;;4.75;;
44026;SDS011;29696;55.698;37.460;2022-08-19T01:13:16;6.05;;;5.07;;
44026;SDS011;29696;55.698;37.460;2022-08-19T01:15:50;12.68;;;5.00;;
44026;SDS011;29696;55.698;37.460;2022-08-19T01:18:20;7.40;;;4.53;;
44026;SDS011;29696;55.698;37.460;2022-08-19T01:20:47;8.02;;;5.18;;
44026;SDS011;29696;55.698;37.460;2022-08-19T01:23:14;9.07;;;4.95;;
44026;SDS011;29696;55.698;37.460;2022-08-19T01:25:47;6.72;;;5.10;;
44026;SDS011;29696;55.698;37.460;2022-08-19T01:30:46;9.82;;;5.78;;
44026;SDS011;29696;55.698;37.460;2022-08-19T01:33:13;9.48;;;5.57;;
44026;SDS011;29696;55.698;37.460;2022-08-19T01:35:40;7.75;;;5.45;;
44026;SDS011;29696;55.698;37.460;2022-08-19T01:38:08;13.25;;;6.57;;
44026;SDS011;29696;55.698;37.460;2022-08-19T01:40:37;9.38;;;5.57;;
44026;SDS011;29696;55.698;37.460;2022-08-19T01:43:05;6.28;;;5.00;;
44026;SDS011;29696;55.698;37.460;2022-08-19T01:45:32;10.75;;;6.53;;
44026;SDS011;29696;55.698;37.460;2022-08-19T01:48:00;9.02;;;4.32;;
44026;SDS011;29696;55.698;37.460;2022-08-19T01:50:28;6.70;;;4.13;;
44026;SDS011;29696;55.698;37.460;2022-08-19T01:52:56;6.97;;;5.13;;
44026;SDS011;29696;55.698;37.460;2022-08-19T01:55:22;10.57;;;4.30;;
44026;SDS011;29696;55.698;37.460;2022-08-19T01:57:54;13.75;;;5.00;;
44026;SDS011;29696;55.698;37.460;2022-08-19T02:00:24;9.57;;;6.40;;
44026;SDS011;29696;55.698;37.460;2022-08-19T02:02:53;9.38;;;5.20;;
44026;SDS011;29696;55.698;37.460;2022-08-19T02:05:19;9.63;;;5.32;;
44026;SDS011;29696;55.698;37.460;2022-08-19T02:07:47;10.63;;;5.82;;
44026;SDS011;29696;55.698;37.460;2022-08-19T02:10:16;9.15;;;4.55;;
44026;SDS011;29696;55.698;37.460;2022-08-19T02:12:45;9.98;;;4.15;;
44026;SDS011;29696;55.698;37.460;2022-08-19T02:15:12;8.43;;;5.18;;
44026;SDS011;29696;55.698;37.460;2022-08-19T02:17:38;8.40;;;4.80;;
44026;SDS011;29696;55.698;37.460;2022-08-19T02:20:06;12.98;;;5.40;;
44026;SDS011;29696;55.698;37.460;2022-08-19T02:22:33;15.45;;;5.10;;
44026;SDS011;29696;55.698;37.460;2022-08-19T02:25:01;10.88;;;4.95;;
44026;SDS011;29696;55.698;37.460;2022-08-19T02:27:29;7.68;;;5.07;;
44026;SDS011;29696;55.698;37.460;2022-08-19T02:29:56;17.40;;;5.75;;
44026;SDS011;29696;55.698;37.460;2022-08-19T02:32:23;14.65;;;5.53;;
44026;SDS011;29696;55.698;37.460;2022-08-19T02:34:49;6.05;;;5.40;;
44026;SDS011;29696;55.698;37.460;2022-08-19T02:37:15;10.93;;;4.72;;
44026;SDS011;29696;55.698;37.460;2022-08-19T02:42:27;18.92;;;5.93;;
44026;SDS011;29696;55.698;37.460;2022-08-19T02:44:55;8.43;;;5.07;;
44026;SDS011;29696;55.698;37.460;2022-08-19T02:47:21;6.22;;;4.60;;
44026;SDS011;29696;55.698;37.460;2022-08-19T02:49:48;9.52;;;5.15;;
44026;SDS011;29696;55.698;37.460;2022-08-19T02:52:15;11.13;;;6.63;;
44026;SDS011;29696;55.698;37.460;2022-08-19T02:54:42;11.52;;;5.72;;
44026;SDS011;29696;55.698;37.460;2022-08-19T02:57:09;9.05;;;5.88;;
44026;SDS011;29696;55.698;37.460;2022-08-19T02:59:36;9.63;;;5.85;;
44026;SDS011;29696;55.698;37.460;2022-08-19T03:02:02;7.25;;;5.07;;
44026;SDS011;29696;55.698;37.460;2022-08-19T03:04:29;11.32;;;6.10;;
44026;SDS011;29696;55.698;37.460;2022-08-19T03:06:55;9.93;;;5.80;;
44026;SDS011;29696;55.698;37.460;2022-08-19T03:09:21;10.88;;;5.10;;
44026;SDS011;29696;55.698;37.460;2022-08-19T03:11:47;9.45;;;5.38;;
44026;SDS011;29696;55.698;37.460;2022-08-19T03:14:14;8.05;;;5.22;;
44026;SDS011;29696;55.698;37.460;2022-08-19T03:16:42;11.23;;;5.70;;
44026;SDS011;29696;55.698;37.460;2022-08-19T03:19:10;8.43;;;5.85;;
44026;SDS011;29696;55.698;37.460;2022-08-19T03:21:36;9.65;;;6.22;;
44026;SDS011;29696;55.698;37.460;2022-08-19T03:24:04;7.55;;;5.60;;
44026;SDS011;29696;55.698;37.460;2022-08-19T03:26:32;11.65;;;6.18;;
44026;SDS011;29696;55.698;37.460;2022-08-19T03:29:04;9.65;;;5.53;;
44026;SDS011;29696;55.698;37.460;2022-08-19T03:31:31;12.15;;;5.55;;
44026;SDS011;29696;55.698;37.460;2022-08-19T03:33:57;11.52;;;5.65;;
44026;SDS011;29696;55.698;37.460;2022-08-19T03:36:25;6.60;;;5.32;;
44026;SDS011;29696;55.698;37.460;2022-08-19T03:38:54;17.27;;;5.45;;
44026;SDS011;29696;55.698;37.460;2022-08-19T03:41:32;13.18;;;5.32;;
44026;SDS011;29696;55.698;37.460;2022-08-19T03:44:02;7.45;;;4.57;;
44026;SDS011;29696;55.698;37.460;2022-08-19T03:46:31;14.00;;;6.35;;
44026;SDS011;29696;55.698;37.460;2022-08-19T03:48:59;10.98;;;6.32;;
44026;SDS011;29696;55.698;37.460;2022-08-19T03:51:35;15.25;;;6.15;;
44026;SDS011;29696;55.698;37.460;2022-08-19T03:54:05;8.30;;;5.45;;
44026;SDS011;29696;55.698;37.460;2022-08-19T03:56:34;8.57;;;4.88;;
44026;SDS011;29696;55.698;37.460;2022-08-19T03:59:05;11.77;;;6.28;;
44026;SDS011;29696;55.698;37.460;2022-08-19T04:01:34;11.45;;;5.90;;
44026;SDS011;29696;55.698;37.460;2022-08-19T04:04:01;10.77;;;5.03;;
44026;SDS011;29696;55.698;37.460;2022-08-19T04:06:29;7.40;;;5.57;;
44026;SDS011;29696;55.698;37.460;2022-08-19T04:09:02;10.73;;;4.93;;
44026;SDS011;29696;55.698;37.460;2022-08-19T04:11:33;9.27;;;4.28;;
44026;SDS011;29696;55.698;37.460;2022-08-19T04:14:02;8.27;;;5.25;;
44026;SDS011;29696;55.698;37.460;2022-08-19T04:16:29;6.75;;;5.03;;
44026;SDS011;29696;55.698;37.460;2022-08-19T04:18:55;7.97;;;4.60;;
44026;SDS011;29696;55.698;37.460;2022-08-19T04:21:24;8.30;;;5.57;;
44026;SDS011;29696;55.698;37.460;2022-08-19T04:23:52;6.45;;;4.65;;
44026;SDS011;29696;55.698;37.460;2022-08-19T04:26:26;8.98;;;4.93;;
44026;SDS011;29696;55.698;37.460;2022-08-19T04:28:54;8.15;;;5.95;;
44026;SDS011;29696;55.698;37.460;2022-08-19T04:31:23;12.60;;;5.47;;
44026;SDS011;29696;55.698;37.460;2022-08-19T04:34:01;12.02;;;5.45;;
44026;SDS011;29696;55.698;37.460;2022-08-19T04:36:30;10.13;;;5.57;;
44026;SDS011;29696;55.698;37.460;2022-08-19T04:39:00;18.50;;;5.32;;
44026;SDS011;29696;55.698;37.460;2022-08-19T04:41:30;10.52;;;4.90;;
44026;SDS011;29696;55.698;37.460;2022-08-19T04:44:15;16.35;;;5.30;;
44026;SDS011;29696;55.698;37.460;2022-08-19T04:46:47;13.45;;;6.13;;
44026;SDS011;29696;55.698;37.460;2022-08-19T04:49:15;12.68;;;6.22;;
44026;SDS011;29696;55.698;37.460;2022-08-19T04:51:43;9.68;;;6.20;;
44026;SDS011;29696;55.698;37.460;2022-08-19T04:54:11;11.43;;;5.60;;
44026;SDS011;29696;55.698;37.460;2022-08-19T04:56:38;10.98;;;5.68;;
44026;SDS011;29696;55.698;37.460;2022-08-19T04:59:06;9.07;;;5.88;;
44026;SDS011;29696;55.698;37.460;2022-08-19T05:01:34;12.40;;;6.28;;
44026;SDS011;29696;55.698;37.460;2022-08-19T05:04:03;8.82;;;5.97;;
44026;SDS011;29696;55.698;37.460;2022-08-19T05:06:32;9.50;;;5.65;;
44026;SDS011;29696;55.698;37.460;2022-08-19T05:09:00;8.00;;;5.82;;
44026;SDS011;29696;55.698;37.460;2022-08-19T05:11:29;10.77;;;5.60;;
44026;SDS011;29696;55.698;37.460;2022-08-19T05:14:01;7.93;;;5.00;;
44026;SDS011;29696;55.698;37.460;2022-08-19T05:16:27;15.18;;;7.28;;
44026;SDS011;29696;55.698;37.460;2022-08-19T05:18:54;9.05;;;5.93;;
44026;SDS011;29696;55.698;37.460;2022-08-19T05:21:40;17.33;;;7.28;;
44026;SDS011;29696;55.698;37.460;2022-08-19T05:24:26;8.82;;;6.20;;
44026;SDS011;29696;55.698;37.460;2022-08-19T05:26:53;11.68;;;6.18;;
44026;SDS011;29696;55.698;37.460;2022-08-19T05:29:23;11.00;;;5.50;;
44026;SDS011;29696;55.698;37.460;2022-08-19T05:31:51;15.27;;;7.55;;
44026;SDS011;29696;55.698;37.460;2022-08-19T05:34:19;13.98;;;6.88;;
44026;SDS011;29696;55.698;37.460;2022-08-19T05:36:48;13.02;;;6.78;;
44026;SDS011;29696;55.698;37.460;2022-08-19T05:39:18;12.63;;;6.10;;
44026;SDS011;29696;55.698;37.460;2022-08-19T05:41:47;21.60;;;7.10;;
44026;SDS011;29696;55.698;37.460;2022-08-19T05:44:18;10.40;;;5.75;;
44026;SDS011;29696;55.698;37.460;2022-08-19T05:46:47;7.50;;;5.25;;
44026;SDS011;29696;55.698;37.460;2022-08-19T05:49:14;11.95;;;6.05;;
44026;SDS011;29696;55.698;37.460;2022-08-19T05:51:42;14.23;;;6.18;;
44026;SDS011;29696;55.698;37.460;2022-08-19T05:54:08;15.65;;;7.10;;
44026;SDS011;29696;55.698;37.460;2022-08-19T05:56:37;14.13;;;6.82;;
44026;SDS011;29696;55.698;37.460;2022-08-19T05:59:08;10.57;;;6.90;;
44026;SDS011;29696;55.698;37.460;2022-08-19T06:01:37;12.85;;;5.82;;
44026;SDS011;29696;55.698;37.460;2022-08-19T06:04:05;10.70;;;5.70;;
44026;SDS011;29696;55.698;37.460;2022-08-19T06:06:33;9.75;;;5.53;;
44026;SDS011;29696;55.698;37.460;2022-08-19T06:09:03;12.05;;;5.38;;
44026;SDS011;29696;55.698;37.460;2022-08-19T06:14:21;12.60;;;6.85;;
44026;SDS011;29696;55.698;37.460;2022-08-19T06:16:49;13.30;;;7.05;;
44026;SDS011;29696;55.698;37.460;2022-08-19T06:19:18;11.48;;;5.40;;
44026;SDS011;29696;55.698;37.460;2022-08-19T06:21:48;12.15;;;5.70;;
44026;SDS011;29696;55.698;37.460;2022-08-19T06:24:16;12.73;;;5.13;;
44026;SDS011;29696;55.698;37.460;2022-08-19T06:26:46;12.40;;;5.40;;
44026;SDS011;29696;55.698;37.460;2022-08-19T06:29:14;8.27;;;5.05;;
44026;SDS011;29696;55.698;37.460;2022-08-19T06:31:44;10.13;;;5.50;;
44026;SDS011;29696;55.698;37.460;2022-08-19T06:34:15;16.10;;;5.70;;
44026;SDS011;29696;55.698;37.460;2022-08-19T06:36:43;10.20;;;5.15;;
44026;SDS011;29696;55.698;37.460;2022-08-19T06:39:16;12.10;;;6.05;;
44026;SDS011;29696;55.698;37.460;2022-08-19T06:41:45;13.77;;;6.00;;
44026;SDS011;29696;55.698;37.460;2022-08-19T06:44:21;19.50;;;6.25;;
44026;SDS011;29696;55.698;37.460;2022-08-19T06:46:49;11.35;;;5.10;;
44026;SDS011;29696;55.698;37.460;2022-08-19T06:49:16;6.90;;;4.78;;
44026;SDS011;29696;55.698;37.460;2022-08-19T06:51:44;12.93;;;5.10;;
44026;SDS011;29696;55.698;37.460;2022-08-19T06:54:13;10.48;;;5.15;;
44026;SDS011;29696;55.698;37.460;2022-08-19T06:56:41;12.57;;;5.43;;
44026;SDS011;29696;55.698;37.460;2022-08-19T06:59:10;7.30;;;5.10;;
44026;SDS011;29696;55.698;37.460;2022-08-19T07:01:39;6.97;;;4.95;;
44026;SDS011;29696;55.698;37.460;2022-08-19T07:04:08;12.13;;;5.45;;
44026;SDS011;29696;55.698;37.460;2022-08-19T07:06:36;6.30;;;5.22;;
44026;SDS011;29696;55.698;37.460;2022-08-19T07:09:03;7.70;;;5.57;;
44026;SDS011;29696;55.698;37.460;2022-08-19T07:11:32;10.50;;;5.43;;
44026;SDS011;29696;55.698;37.460;2022-08-19T07:13:59;12.10;;;5.03;;
44026;SDS011;29696;55.698;37.460;2022-08-19T07:16:26;10.48;;;5.85;;
44026;SDS011;29696;55.698;37.460;2022-08-19T07:18:53;11.50;;;5.22;;
44026;SDS011;29696;55.698;37.460;2022-08-19T07:21:21;16.83;;;6.45;;
44026;SDS011;29696;55.698;37.460;2022-08-19T07:23:50;9.35;;;5.40;;
44026;SDS011;29696;55.698;37.460;2022-08-19T07:26:19;8.88;;;4.53;;
44026;SDS011;29696;55.698;37.460;2022-08-19T07:28:50;11.68;;;6.15;;
44026;SDS011;29696;55.698;37.460;2022-08-19T07:31:17;9.15;;;4.90;;
44026;SDS011;29696;55.698;37.460;2022-08-19T07:33:46;15.63;;;5.35;;
44026;SDS011;29696;55.698;37.460;2022-08-19T07:36:14;13.15;;;5.47;;
44026;SDS011;29696;55.698;37.460;2022-08-19T07:38:43;12.40;;;4.88;;
44026;SDS011;29696;55.698;37.460;2022-08-19T07:41:15;13.20;;;5.50;;
44026;SDS011;29696;55.698;37.460;2022-08-19T07:43:46;11.32;;;5.20;;
44026;SDS011;29696;55.698;37.460;2022-08-19T07:46:13;17.85;;;5.20;;
44026;SDS011;29696;55.698;37.460;2022-08-19T07:48:43;28.38;;;6.22;;
44026;SDS011;29696;55.698;37.460;2022-08-19T07:51:14;27.95;;;6.30;;
44026;SDS011;29696;55.698;37.460;2022-08-19T07:53:43;14.43;;;4.95;;
44026;SDS011;29696;55.698;37.460;2022-08-19T07:56:14;14.27;;;5.28;;
44026;SDS011;29696;55.698;37.460;2022-08-19T07:58:42;12.25;;;4.25;;
44026;SDS011;29696;55.698;37.460;2022-08-19T08:01:11;23.48;;;6.47;;
44026;SDS011;29696;55.698;37.460;2022-08-19T08:03:40;12.85;;;3.70;;
44026;SDS011;29696;55.698;37.460;2022-08-19T08:06:24;18.17;;;7.30;;
44026;SDS011;29696;55.698;37.460;2022-08-19T08:09:10;13.35;;;3.92;;
44026;SDS011;29696;55.698;37.460;2022-08-19T08:11:42;12.98;;;4.90;;
44026;SDS011;29696;55.698;37.460;2022-08-19T08:14:19;10.38;;;4.18;;
44026;SDS011;29696;55.698;37.460;2022-08-19T08:16:48;14.27;;;4.43;;
44026;SDS011;29696;55.698;37.460;2022-08-19T08:19:19;23.80;;;5.15;;
44026;SDS011;29696;55.698;37.460;2022-08-19T08:21:48;15.95;;;5.05;;
44026;SDS011;29696;55.698;37.460;2022-08-19T08:24:16;15.85;;;4.22;;
44026;SDS011;29696;55.698;37.460;2022-08-19T08:26:43;18.73;;;7.00;;
44026;SDS011;29696;55.698;37.460;2022-08-19T08:29:10;26.35;;;5.90;;
44026;SDS011;29696;55.698;37.460;2022-08-19T08:31:42;12.95;;;4.80;;
44026;SDS011;29696;55.698;37.460;2022-08-19T08:34:10;12.30;;;5.18;;
44026;SDS011;29696;55.698;37.460;2022-08-19T08:36:38;7.47;;;4.18;;
44026;SDS011;29696;55.698;37.460;2022-08-19T08:39:09;6.28;;;4.32;;
44026;SDS011;29696;55.698;37.460;2022-08-19T08:41:53;12.43;;;5.00;;
44026;SDS011;29696;55.698;37.460;2022-08-19T08:47:43;13.15;;;5.72;;
44026;SDS011;29696;55.698;37.460;2022-08-19T08:50:15;11.30;;;4.18;;
44026;SDS011;29696;55.698;37.460;2022-08-19T08:53:03;10.75;;;4.90;;
44026;SDS011;29696;55.698;37.460;2022-08-19T08:55:34;9.77;;;4.70;;
44026;SDS011;29696;55.698;37.460;2022-08-19T08:58:01;14.75;;;4.63;;
44026;SDS011;29696;55.698;37.460;2022-08-19T09:00:38;14.80;;;4.18;;
44026;SDS011;29696;55.698;37.460;2022-08-19T09:03:29;5.78;;;3.80;;
44026;SDS011;29696;55.698;37.460;2022-08-19T09:06:05;8.38;;;4.15;;
44026;SDS011;29696;55.698;37.460;2022-08-19T09:08:54;6.10;;;3.53;;
44026;SDS011;29696;55.698;37.460;2022-08-19T09:14:37;24.17;;;4.95;;
44026;SDS011;29696;55.698;37.460;2022-08-19T09:17:11;24.48;;;5.82;;
44026;SDS011;29696;55.698;37.460;2022-08-19T09:19:52;13.07;;;5.38;;
44026;SDS011;29696;55.698;37.460;2022-08-19T09:22:45;11.63;;;4.45;;
44026;SDS011;29696;55.698;37.460;2022-08-19T09:25:13;8.73;;;4.05;;
44026;SDS011;29696;55.698;37.460;2022-08-19T09:27:42;9.20;;;3.97;;
44026;SDS011;29696;55.698;37.460;2022-08-19T09:30:17;10.13;;;3.85;;
44026;SDS011;29696;55.698;37.460;2022-08-19T09:32:49;8.18;;;3.72;;
44026;SDS011;29696;55.698;37.460;2022-08-19T09:35:19;13.32;;;5.05;;
44026;SDS011;29696;55.698;37.460;2022-08-19T09:37:50;13.02;;;6.25;;
44026;SDS011;29696;55.698;37.460;2022-08-19T09:40:17;13.48;;;4.15;;
44026;SDS011;29696;55.698;37.460;2022-08-19T09:42:44;11.02;;;4.25;;
44026;SDS011;29696;55.698;37.460;2022-08-19T09:45:13;13.50;;;4.45;;
44026;SDS011;29696;55.698;37.460;2022-08-19T09:47:42;12.90;;;4.50;;
44026;SDS011;29696;55.698;37.460;2022-08-19T09:50:10;8.38;;;4.75;;
44026;SDS011;29696;55.698;37.460;2022-08-19T09:52:38;13.10;;;6.00;;
44026;SDS011;29696;55.698;37.460;2022-08-19T09:55:05;12.23;;;3.65;;
44026;SDS011;29696;55.698;37.460;2022-08-19T09:57:33;6.82;;;3.58;;
44026;SDS011;29696;55.698;37.460;2022-08-19T10:00:01;65.13;;;8.15;;
44026;SDS011;29696;55.698;37.460;2022-08-19T10:02:33;7.72;;;3.83;;
44026;SDS011;29696;55.698;37.460;2022-08-19T10:05:01;12.43;;;4.35;;
44026;SDS011;29696;55.698;37.460;2022-08-19T10:07:46;8.30;;;3.53;;
44026;SDS011;29696;55.698;37.460;2022-08-19T10:10:12;11.82;;;3.05;;
44026;SDS011;29696;55.698;37.460;2022-08-19T10:12:39;6.65;;;4.30;;
44026;SDS011;29696;55.698;37.460;2022-08-19T10:15:05;9.93;;;3.33;;
44026;SDS011;29696;55.698;37.460;2022-08-19T10:17:32;13.23;;;3.28;;
44026;SDS011;29696;55.698;37.460;2022-08-19T10:20:01;6.65;;;3.28;;
44026;SDS011;29696;55.698;37.460;2022-08-19T10:22:30;13.07;;;4.00;;
44026;SDS011;29696;55.698;37.460;2022-08-19T10:24:56;14.55;;;3.85;;
44026;SDS011;29696;55.698;37.460;2022-08-19T10:27:23;6.18;;;3.85;;
44026;SDS011;29696;55.698;37.460;2022-08-19T10:29:49;23.58;;;3.42;;
44026;SDS011;29696;55.698;37.460;2022-08-19T10:32:16;12.43;;;3.63;;
44026;SDS011;29696;55.698;37.460;2022-08-19T10:34:42;11.65;;;3.15;;
44026;SDS011;29696;55.698;37.460;2022-08-19T10:37:08;10.10;;;3.58;;
44026;SDS011;29696;55.698;37.460;2022-08-19T10:39:35;8.80;;;3.50;;
44026;SDS011;29696;55.698;37.460;2022-08-19T10:42:05;8.18;;;3.00;;
44026;SDS011;29696;55.698;37.460;2022-08-19T10:44:33;29.05;;;4.32;;
44026;SDS011;29696;55.698;37.460;2022-08-19T10:47:01;6.60;;;2.72;;
44026;SDS011;29696;55.698;37.460;2022-08-19T10:49:29;12.93;;;3.63;;
44026;SDS011;29696;55.698;37.460;2022-08-19T10:51:56;8.75;;;3.28;;
44026;SDS011;29696;55.698;37.460;2022-08-19T10:54:41;17.02;;;3.60;;
44026;SDS011;29696;55.698;37.460;2022-08-19T10:57:29;10.02;;;3.35;;
44026;SDS011;29696;55.698;37.460;2022-08-19T10:59:56;6.05;;;2.60;;
44026;SDS011;29696;55.698;37.460;2022-08-19T11:02:23;15.00;;;5.07;;
44026;SDS011;29696;55.698;37.460;2022-08-19T11:04:49;10.45;;;4.03;;
44026;SDS011;29696;55.698;37.460;2022-08-19T11:07:17;9.50;;;4.50;;
44026;SDS011;29696;55.698;37.460;2022-08-19T11:09:43;7.93;;;2.78;;
44026;SDS011;29696;55.698;37.460;2022-08-19T11:12:09;8.80;;;2.90;;
44026;SDS011;29696;55.698;37.460;2022-08-19T11:14:36;5.15;;;3.08;;
44026;SDS011;29696;55.698;37.460;2022-08-19T11:17:03;10.15;;;2.53;;
44026;SDS011;29696;55.698;37.460;2022-08-19T11:19:31;16.10;;;3.75;;
44026;SDS011;29696;55.698;37.460;2022-08-19T11:21:57;10.93;;;3.33;;
44026;SDS011;29696;55.698;37.460;2022-08-19T11:24:28;7.40;;;2.30;;
44026;SDS011;29696;55.698;37.460;2022-08-19T11:27:00;23.55;;;2.97;;
44026;SDS011;29696;55.698;37.460;2022-08-19T11:29:28;4.65;;;2.55;;
44026;SDS011;29696;55.698;37.460;2022-08-19T11:31:55;7.40;;;3.75;;
44026;SDS011;29696;55.698;37.460;2022-08-19T11:34:22;10.02;;;3.03;;
44026;SDS011;29696;55.698;37.460;2022-08-19T11:36:51;11.38;;;2.90;;
44026;SDS011;29696;55.698;37.460;2022-08-19T11:39:18;7.80;;;3.55;;
44026;SDS011;29696;55.698;37.460;2022-08-19T11:41:46;5.70;;;2.72;;
44026;SDS011;29696;55.698;37.460;2022-08-19T11:44:13;8.57;;;3.15;;
44026;SDS011;29696;55.698;37.460;2022-08-19T11:46:41;12.45;;;2.95;;
44026;SDS011;29696;55.698;37.460;2022-08-19T11:49:12;7.70;;;3.55;;
44026;SDS011;29696;55.698;37.460;2022-08-19T11:51:41;8.55;;;2.90;;
44026;SDS011;29696;55.698;37.460;2022-08-19T11:54:09;7.93;;;3.00;;
44026;SDS011;29696;55.698;37.460;2022-08-19T11:56:37;18.40;;;3.92;;
44026;SDS011;29696;55.698;37.460;2022-08-19T11:59:03;6.80;;;3.47;;
44026;SDS011;29696;55.698;37.460;2022-08-19T12:01:30;9.48;;;4.03;;
44026;SDS011;29696;55.698;37.460;2022-08-19T12:03:57;13.02;;;3.03;;
44026;SDS011;29696;55.698;37.460;2022-08-19T12:06:25;10.15;;;3.50;;
44026;SDS011;29696;55.698;37.460;2022-08-19T12:08:56;13.48;;;3.25;;
44026;SDS011;29696;55.698;37.460;2022-08-19T12:11:24;14.68;;;3.97;;
44026;SDS011;29696;55.698;37.460;2022-08-19T12:13:51;15.02;;;3.22;;
44026;SDS011;29696;55.698;37.460;2022-08-19T12:16:19;8.32;;;3.63;;
44026;SDS011;29696;55.698;37.460;2022-08-19T12:18:48;8.02;;;3.33;;
44026;SDS011;29696;55.698;37.460;2022-08-19T12:21:18;13.50;;;3.10;;
44026;SDS011;29696;55.698;37.460;2022-08-19T12:23:48;10.95;;;3.58;;
44026;SDS011;29696;55.698;37.460;2022-08-19T12:26:16;15.93;;;4.32;;
44026;SDS011;29696;55.698;37.460;2022-08-19T12:28:43;7.43;;;3.38;;
44026;SDS011;29696;55.698;37.460;2022-08-19T12:31:10;9.30;;;3.88;;
44026;SDS011;29696;55.698;37.460;2022-08-19T12:33:40;14.07;;;4.72;;
44026;SDS011;29696;55.698;37.460;2022-08-19T12:36:09;22.98;;;4.82;;
44026;SDS011;29696;55.698;37.460;2022-08-19T12:38:36;4.45;;;3.00;;
44026;SDS011;29696;55.698;37.460;2022-08-19T12:41:04;12.57;;;3.80;;
44026;SDS011;29696;55.698;37.460;2022-08-19T12:43:33;6.43;;;3.72;;
44026;SDS011;29696;55.698;37.460;2022-08-19T12:46:01;6.75;;;4.38;;
44026;SDS011;29696;55.698;37.460;2022-08-19T12:48:30;5.88;;;2.90;;
44026;SDS011;29696;55.698;37.460;2022-08-19T12:50:58;9.02;;;4.50;;
44026;SDS011;29696;55.698;37.460;2022-08-19T12:53:24;4.50;;;3.58;;
44026;SDS011;29696;55.698;37.460;2022-08-19T12:55:57;10.85;;;4.68;;
44026;SDS011;29696;55.698;37.460;2022-08-19T12:58:26;11.30;;;3.92;;
44026;SDS011;29696;55.698;37.460;2022-08-19T13:00:53;13.93;;;4.47;;
44026;SDS011;29696;55.698;37.460;2022-08-19T13:03:19;10.70;;;4.65;;
44026;SDS011;29696;55.698;37.460;2022-08-19T13:05:48;7.35;;;3.40;;
44026;SDS011;29696;55.698;37.460;2022-08-19T13:08:16;7.72;;;4.90;;
44026;SDS011;29696;55.698;37.460;2022-08-19T13:10:43;13.35;;;4.40;;
44026;SDS011;29696;55.698;37.460;2022-08-19T13:13:09;31.67;;;6.03;;
44026;SDS011;29696;55.698;37.460;2022-08-19T13:15:37;19.38;;;4.65;;
44026;SDS011;29696;55.698;37.460;2022-08-19T13:18:08;10.35;;;3.97;;
44026;SDS011;29696;55.698;37.460;2022-08-19T13:20:36;8.10;;;5.63;;
44026;SDS011;29696;55.698;37.460;2022-08-19T13:23:03;14.35;;;4.80;;
44026;SDS011;29696;55.698;37.460;2022-08-19T13:25:30;8.07;;;5.13;;
44026;SDS011;29696;55.698;37.460;2022-08-19T13:27:57;10.77;;;5.45;;
44026;SDS011;29696;55.698;37.460;2022-08-19T13:30:23;7.72;;;5.20;;
44026;SDS011;29696;55.698;37.460;2022-08-19T13:33:08;9.70;;;6.10;;
44026;SDS011;29696;55.698;37.460;2022-08-19T13:35:38;28.67;;;8.15;;
44026;SDS011;29696;55.698;37.460;2022-08-19T13:38:06;15.23;;;7.80;;
44026;SDS011;29696;55.698;37.460;2022-08-19T13:40:32;23.67;;;7.55;;
44026;SDS011;29696;55.698;37.460;2022-08-19T13:42:59;22.20;;;8.77;;
44026;SDS011;29696;55.698;37.460;2022-08-19T13:45:28;12.75;;;8.40;;
44026;SDS011;29696;55.698;37.460;2022-08-19T13:47:56;16.13;;;6.90;;
44026;SDS011;29696;55.698;37.460;2022-08-19T13:50:24;23.95;;;7.25;;
44026;SDS011;29696;55.698;37.460;2022-08-19T13:52:52;22.75;;;8.18;;
44026;SDS011;29696;55.698;37.460;2022-08-19T13:55:20;20.48;;;9.32;;
44026;SDS011;29696;55.698;37.460;2022-08-19T13:57:50;22.38;;;7.53;;
44026;SDS011;29696;55.698;37.460;2022-08-19T14:00:19;17.92;;;8.27;;
44026;SDS011;29696;55.698;37.460;2022-08-19T14:02:46;16.50;;;7.50;;
44026;SDS011;29696;55.698;37.460;2022-08-19T14:05:17;14.65;;;8.18;;
44026;SDS011;29696;55.698;37.460;2022-08-19T14:07:44;15.93;;;9.82;;
44026;SDS011;29696;55.698;37.460;2022-08-19T14:10:11;10.70;;;9.57;;
44026;SDS011;29696;55.698;37.460;2022-08-19T14:12:39;13.88;;;9.25;;
44026;SDS011;29696;55.698;37.460;2022-08-19T14:15:06;15.38;;;10.40;;
44026;SDS011;29696;55.698;37.460;2022-08-19T14:17:34;22.17;;;13.50;;
44026;SDS011;29696;55.698;37.460;2022-08-19T14:20:03;35.13;;;17.35;;
44026;SDS011;29696;55.698;37.460;2022-08-19T14:22:38;22.88;;;13.18;;
44026;SDS011;29696;55.698;37.460;2022-08-19T14:25:07;30.25;;;14.30;;
44026;SDS011;29696;55.698;37.460;2022-08-19T14:27:37;24.77;;;14.88;;
44026;SDS011;29696;55.698;37.460;2022-08-19T14:30:07;23.92;;;15.00;;
44026;SDS011;29696;55.698;37.460;2022-08-19T14:32:36;26.25;;;14.32;;
44026;SDS011;29696;55.698;37.460;2022-08-19T14:35:03;20.77;;;13.77;;
44026;SDS011;29696;55.698;37.460;2022-08-19T14:37:31;20.00;;;12.95;;
44026;SDS011;29696;55.698;37.460;2022-08-19T14:39:59;16.60;;;11.10;;
44026;SDS011;29696;55.698;37.460;2022-08-19T14:42:26;21.17;;;11.30;;
44026;SDS011;29696;55.698;37.460;2022-08-19T14:44:52;18.83;;;11.48;;
44026;SDS011;29696;55.698;37.460;2022-08-19T14:47:18;22.45;;;11.20;;
44026;SDS011;29696;55.698;37.460;2022-08-19T14:49:44;33.25;;;16.02;;
44026;SDS011;29696;55.698;37.460;2022-08-19T14:52:11;61.88;;;25.55;;